Latest Weather Observations for Hobart Airport

IDT60801

Issued at 4:35 pm EST Wednesday 20 August 2014 (issued every 30 minutes, with the page automatically refreshed every 10 minutes)

About weather observations | Map of weather stations | Latest weather observations for TAS | Other Formats
Station Details ID: 094008 Name: HOBART AIRPORT Lat: -42.83 Lon: 147.50 Height: 4.0 m
Data from the previous 72 hours. | See also: Recent months at Hobart Airport
Date/Time
EST
Temp
°C
App
Temp
°C
Dew
Point
Rel
Hum
%
Delta-T
°C
Wind Press
QNH
hPa
Press
MSL
hPa
Rain
since 9 am
mm
Dir
 
Spd
km/h
Gust
km/h
Spd
kts
Gust
kts
20/04:30pm 11.7 7.1 3.8 58 3.5 SSE 17 22 9 12 1027.3 - 0.0
20/04:00pm 12.3 7.7 3.8 56 3.8 SSE 17 19 9 10 1027.0 1027.1 0.0
20/03:30pm 12.2 8.0 3.6 55 3.8 SE 15 19 8 10 1026.8 - 0.0
20/03:00pm 11.8 7.0 2.8 54 3.9 SE 17 24 9 13 1026.7 1026.8 0.0
20/02:30pm 13.0 10.0 3.9 54 4.1 E 9 13 5 7 1026.6 - 0.0
20/02:00pm 12.5 10.0 3.8 55 3.9 ENE 6 9 3 5 1026.4 1026.5 0.0
20/01:30pm 12.5 9.2 2.6 51 4.3 NE 9 15 5 8 1026.3 - 0.0
20/01:00pm 12.9 9.7 3.2 51 4.3 N 9 15 5 8 1026.4 1026.5 0.0
20/12:30pm 13.1 10.0 3.4 51 4.3 NW 9 17 5 9 1026.6 - 0.0
20/12:00pm 12.7 9.2 3.5 53 4.1 NNW 11 15 6 8 1026.7 1026.8 0.0
20/11:30am 12.0 8.1 3.6 56 3.7 NNW 13 19 7 10 1027.0 - 0.0
20/11:00am 11.0 6.8 3.7 60 3.2 NNW 15 19 8 10 1027.1 1027.2 0.0
20/10:30am 10.2 5.6 3.5 63 2.9 NNW 17 20 9 11 1027.0 - 0.0
20/10:00am 9.5 4.9 3.7 67 2.5 NW 17 22 9 12 1026.9 1027.0 0.0
20/09:30am 8.4 3.8 3.5 71 2.1 NW 17 20 9 11 1026.8 - 0.0
20/09:00am 6.8 2.8 2.9 76 1.6 NW 13 15 7 8 1026.6 1026.7 0.0
20/08:30am 5.7 1.6 2.2 78 1.4 NW 13 17 7 9 1026.4 - 0.0
20/08:00am 4.7 0.2 1.9 82 1.1 WNW 15 17 8 9 1026.0 1026.1 0.0
20/07:30am 4.3 -0.6 2.0 85 0.9 NW 17 20 9 11 1025.9 - 0.0
20/07:00am 3.6 -1.3 1.8 88 0.7 NW 17 19 9 10 1025.5 1025.6 0.0
20/06:30am 3.7 -1.2 1.9 88 0.7 WNW 17 19 9 10 1025.1 - 0.0
20/06:00am 3.8 -1.1 1.8 87 0.8 WNW 17 20 9 11 1024.9 1025.0 0.0
20/05:30am 3.8 -0.7 2.0 88 0.7 NW 15 19 8 10 1024.8 - 0.0
20/05:00am 3.9 -1.0 1.9 87 0.8 WNW 17 19 9 10 1024.7 1024.8 0.0
20/04:30am 3.9 -0.6 1.9 87 0.8 NW 15 17 8 9 1024.6 - 0.0
20/04:00am 3.9 -0.6 2.1 88 0.7 NW 15 17 8 9 1024.5 1024.6 0.0
20/03:30am 4.3 0.2 2.0 85 0.9 NW 13 17 7 9 1024.5 - 0.0
20/03:00am 4.3 -0.3 1.8 84 1.0 NW 15 15 8 8 1024.4 1024.5 0.0
20/02:30am 4.6 0.1 2.1 84 1.0 NW 15 19 8 10 1024.4 - 0.0
20/02:00am 5.0 0.5 2.3 83 1.1 NW 15 15 8 8 1024.5 1024.6 0.0
20/01:30am 5.4 2.0 1.9 78 1.4 NW 9 9 5 5 1024.4 - 0.0
20/01:00am 5.2 3.1 1.9 79 1.3 NW 2 7 1 4 1024.2 1024.3 0.0
20/12:30am 5.2 1.8 1.7 78 1.4 NW 9 11 5 6 1024.2 - 0.0
20/12:00am 5.9 2.5 1.9 75 1.6 NW 9 9 5 5 1024.3 1024.4 0.0
 
Date/Time
EST
Temp
°C
App
Temp
°C
Dew
Point
Rel
Hum
%
Delta-T
°C
Wind Press
QNH
hPa
Press
MSL
hPa
Rain
since 9 am
mm
Dir
 
Spd
km/h
Gust
km/h
Spd
kts
Gust
kts
19/11:30pm 6.3 2.6 2.4 76 1.6 WNW 11 13 6 7 1024.2 - 0.0
19/11:00pm 6.9 3.3 2.8 75 1.7 NW 11 13 6 7 1024.0 1024.1 0.0
19/10:30pm 6.8 3.2 3.2 78 1.5 NW 11 13 6 7 1023.9 - 0.0
19/10:00pm 7.6 4.6 3.9 77 1.6 NW 9 11 5 6 1024.1 1024.2 0.0
19/09:30pm 7.8 4.9 4.6 80 1.4 NW 9 11 5 6 1024.0 - 0.0
19/08:30pm 9.2 6.9 4.9 74 1.9 NNW 6 11 3 6 1023.8 - 0.0
19/08:00pm 9.6 7.8 5.4 75 1.9 NNW 4 9 2 5 1023.7 1023.8 0.0
19/07:30pm 9.5 8.5 5.5 76 1.8 CALM 0 0 0 0 1023.4 - 0.0
19/07:00pm 10.0 7.6 5.4 73 2.1 S 7 9 4 5 1023.1 1023.2 0.0
19/06:30pm 9.5 6.2 4.3 70 2.3 S 11 13 6 7 1022.7 - 0.0
19/06:00pm 10.3 6.5 3.7 63 2.9 S 13 15 7 8 1022.5 1022.6 0.0
19/05:30pm 10.8 6.5 3.2 59 3.3 S 15 19 8 10 1022.3 - 0.0
19/05:00pm 11.1 7.9 4.9 65 2.8 SE 11 13 6 7 1022.1 1022.2 0.0
19/04:30pm 12.1 8.9 3.2 54 3.9 S 9 11 5 6 1022.0 - 0.0
19/04:00pm 11.9 8.5 3.8 57 3.6 SE 11 13 6 7 1021.8 1021.9 0.0
19/03:30pm 12.8 9.9 2.5 49 4.5 SSW 7 11 4 6 1021.8 - 0.0
19/03:00pm 12.7 9.0 2.3 49 4.5 WNW 11 15 6 8 1021.8 1021.9 0.0
19/02:30pm 13.1 9.0 2.3 48 4.7 WNW 13 22 7 12 1021.8 - 0.0
19/02:00pm 13.7 8.8 2.3 46 5.0 WNW 17 24 9 13 1021.8 1021.9 0.0
19/01:30pm 13.0 8.8 1.5 45 4.9 WNW 13 20 7 11 1022.0 - 0.0
19/01:00pm 12.3 8.1 1.7 48 4.5 NW 13 19 7 10 1022.4 1022.5 0.0
19/12:30pm 12.1 7.5 1.8 49 4.4 WNW 15 20 8 11 1022.7 - 0.0
19/12:00pm 11.9 6.6 2.1 51 4.2 NW 19 24 10 13 1023.0 1023.1 0.0
19/11:30am 11.6 5.7 1.7 50 4.2 NNW 22 28 12 15 1023.5 - 0.0
19/11:00am 10.5 5.0 1.6 54 3.7 NW 20 28 11 15 1023.7 1023.8 0.0
19/10:30am 10.1 5.2 2.3 58 3.3 NNW 17 26 9 14 1023.8 - 0.0
19/10:00am 9.3 3.8 1.8 59 3.1 NW 20 26 11 14 1024.0 1024.1 0.0
19/09:30am 7.3 1.4 1.9 68 2.2 NW 22 28 12 15 1024.2 - 0.0
19/09:00am 5.6 1.0 1.6 75 1.6 NW 15 22 8 12 1024.5 1024.6 0.0
19/08:30am 5.4 0.8 1.6 76 1.5 NW 15 24 8 13 1024.4 - 0.0
19/08:00am 5.2 0.2 1.4 76 1.5 NNW 17 28 9 15 1024.1 1024.2 0.0
19/07:30am 4.7 -1.2 1.4 79 1.3 NW 22 30 12 16 1023.9 - 0.0
19/07:00am 4.7 -0.7 1.1 77 1.4 NW 19 24 10 13 1023.8 1023.9 0.0
19/06:30am 4.6 -0.5 1.0 77 1.4 NW 17 19 9 10 1023.7 - 0.0
19/06:00am 4.0 -1.0 1.4 83 1.0 NW 17 20 9 11 1023.5 1023.6 0.0
19/05:30am 4.0 -0.6 1.4 83 1.0 NW 15 17 8 9 1023.5 - 0.0
19/05:00am 3.9 -1.1 1.6 85 0.9 NW 17 19 9 10 1023.6 1023.7 0.0
19/04:30am 3.7 -0.5 1.6 86 0.8 NW 13 15 7 8 1023.5 - 0.0
19/04:00am 3.8 0.3 1.5 85 0.9 NW 9 13 5 7 1023.6 1023.7 0.0
19/03:30am 3.6 0.5 1.5 86 0.8 NNW 7 13 4 7 1023.5 - 0.0
19/03:00am 3.7 0.6 1.4 85 0.9 NNW 7 11 4 6 1023.7 1023.8 0.0
19/02:30am 3.7 -0.5 1.4 85 0.9 NW 13 17 7 9 1023.8 - 0.0
19/02:00am 3.8 0.3 1.2 83 1.0 NNW 9 15 5 8 1024.0 1024.1 0.0
19/01:30am 3.9 -0.7 1.3 83 1.0 NW 15 17 8 9 1024.2 - 0.0
19/01:00am 3.9 0.5 1.6 85 0.9 NNW 9 13 5 7 1024.2 1024.3 0.0
19/12:30am 4.3 0.9 1.8 84 1.0 NNW 9 15 5 8 1024.4 - 0.0
19/12:00am 4.2 -0.8 1.4 82 1.1 NW 17 19 9 10 1024.3 1024.4 0.0
 
Date/Time
EST
Temp
°C
App
Temp
°C
Dew
Point
Rel
Hum
%
Delta-T
°C
Wind Press
QNH
hPa
Press
MSL
hPa
Rain
since 9 am
mm
Dir
 
Spd
km/h
Gust
km/h
Spd
kts
Gust
kts
18/11:30pm 4.3 0.5 1.8 84 1.0 NW 11 15 6 8 1024.5 - 0.0
18/11:00pm 4.2 0.8 1.6 83 1.0 NNW 9 17 5 9 1024.5 1024.6 0.0
18/10:30pm 4.4 0.2 1.9 84 1.0 NW 13 15 7 8 1024.5 - 0.0
18/10:00pm 4.3 0.5 2.0 85 0.9 NW 11 17 6 9 1024.6 1024.7 0.0
18/09:30pm 4.9 0.7 1.9 81 1.2 NW 13 17 7 9 1024.6 - 0.0
18/09:00pm 4.5 1.2 2.5 87 0.8 NW 9 13 5 7 1024.5 1024.6 0.0
18/08:30pm 4.9 1.6 2.4 84 1.0 WNW 9 11 5 6 1024.3 - 0.0
18/08:00pm 4.4 1.4 1.9 84 1.0 N 7 9 4 5 1024.2 1024.3 0.0
18/07:30pm 5.4 2.0 1.6 76 1.5 WNW 9 9 5 5 1024.0 - 0.0
18/07:00pm 4.6 2.1 1.3 79 1.3 NW 4 9 2 5 1023.9 1024.0 0.0
18/06:30pm 5.7 2.9 2.0 77 1.5 NW 6 7 3 4 1023.7 - 0.0
18/06:00pm 6.9 5.3 2.5 73 1.8 CALM 0 0 0 0 1023.6 1023.7 0.0
18/05:30pm 8.7 7.1 2.2 63 2.7 CALM 0 0 0 0 1023.3 - 0.0
18/05:00pm 10.3 7.5 2.0 56 3.5 ESE 6 7 3 4 1023.1 1023.2 0.0
18/04:30pm 10.9 7.3 0.7 49 4.2 E 9 11 5 6 1023.0 - 0.0
18/04:00pm 11.2 8.0 0.8 48 4.3 ESE 7 13 4 7 1022.9 1023.0 0.0
18/03:30pm 11.4 7.3 0.1 45 4.6 SE 11 17 6 9 1023.0 - 0.0
18/03:00pm 11.6 7.6 0.4 46 4.6 SE 11 17 6 9 1023.0 1023.1 0.0
18/02:30pm 11.1 7.5 0.3 47 4.4 SE 9 15 5 8 1023.0 - 0.0
18/02:00pm 11.5 7.5 0.2 45 4.6 S 11 17 6 9 1023.1 1023.2 0.0
18/01:30pm 11.3 7.6 -0.1 45 4.6 SSW 9 17 5 9 1023.2 - 0.0
18/01:00pm 11.3 8.1 0.6 47 4.4 E 7 13 4 7 1023.4 1023.5 0.0
18/12:30pm 11.4 7.4 0.4 46 4.5 NNE 11 13 6 7 1023.8 - 0.0
18/12:00pm 10.8 7.1 0.2 48 4.3 NE 9 13 5 7 1024.2 1024.3 0.0
18/11:30am 10.7 7.2 1.3 52 3.9 NW 9 13 5 7 1024.4 - 0.0
18/11:00am 9.5 5.1 2.7 62 2.9 NW 15 17 8 9 1024.6 1024.7 0.0
18/10:30am 8.8 4.8 2.9 66 2.5 NW 13 19 7 10 1024.6 - 0.0
18/10:00am 8.1 2.9 2.6 68 2.3 NW 19 26 10 14 1024.8 1024.9 0.0
18/09:30am 7.3 2.1 2.7 72 1.9 NW 19 24 10 13 1024.9 - 0.0
18/09:00am 6.5 2.1 2.9 78 1.5 NW 15 20 8 11 1025.0 1025.1 0.0
18/08:30am 5.8 0.6 2.6 80 1.3 NW 19 22 10 12 1025.0 - 0.0
18/08:00am 5.3 1.3 2.6 83 1.1 NNW 13 17 7 9 1024.8 1024.9 0.0
18/07:30am 4.8 1.9 2.6 86 0.9 N 7 13 4 7 1024.6 - 0.0
18/07:00am 4.2 0.5 2.2 87 0.8 NW 11 13 6 7 1024.3 1024.4 0.0
18/06:30am 4.0 -0.1 2.2 88 0.7 NW 13 17 7 9 1023.9 - 0.0
18/06:00am 4.1 0.4 2.3 88 0.7 NNW 11 15 6 8 1023.7 1023.8 0.0
18/05:30am 3.9 -0.2 2.1 88 0.7 NNW 13 17 7 9 1023.5 - 0.0
18/05:00am 4.2 0.1 2.4 88 0.7 NNW 13 17 7 9 1023.3 1023.4 0.0
18/04:30am 3.9 1.0 2.4 90 0.6 N 7 13 4 7 1023.1 - 0.0
18/04:00am 2.7 -0.9 0.8 87 0.7 NW 9 11 5 6 1023.0 1023.1 0.0
18/03:30am 3.7 1.3 1.9 88 0.7 NNW 4 7 2 4 1023.0 - 0.0
18/03:00am 4.5 2.2 2.5 87 0.8 WNW 4 11 2 6 1023.0 1023.1 0.0
18/02:30am 4.7 3.1 2.5 86 0.9 CALM 0 0 0 0 1023.4 - 0.0
18/02:00am 4.6 3.0 2.6 87 0.8 CALM 0 0 0 0 1023.4 1023.5 0.0
18/01:30am 6.1 3.2 2.7 79 1.4 WSW 7 9 4 5 1023.5 - 0.0
18/01:00am 6.4 5.0 3.8 83 1.1 CALM 0 0 0 0 1023.4 1023.5 0.0
18/12:30am 6.7 4.2 3.9 82 1.2 WNW 6 7 3 4 1023.3 - 0.0
18/12:00am 7.1 4.0 3.8 79 1.4 WNW 9 9 5 5 1023.1 1023.2 0.0
 
Date/Time
EST
Temp
°C
App
Temp
°C
Dew
Point
Rel
Hum
%
Delta-T
°C
Wind Press
QNH
hPa
Press
MSL
hPa
Rain
since 9 am
mm
Dir
 
Spd
km/h
Gust
km/h
Spd
kts
Gust
kts
17/11:30pm 7.3 4.6 3.5 77 1.6 NNW 7 9 4 5 1023.0 - 0.0
17/11:00pm 7.0 3.6 4.2 82 1.2 NW 11 11 6 6 1022.8 1022.9 0.0
17/10:30pm 6.9 4.2 3.6 79 1.4 NNW 7 9 4 5 1022.8 - 0.0
17/10:00pm 6.8 4.6 3.5 79 1.4 NE 4 6 2 3 1022.7 1022.8 0.0
17/09:30pm 6.8 4.2 3.2 78 1.5 WNW 6 7 3 4 1022.7 - 0.0
17/09:00pm 6.8 4.4 2.4 73 1.8 W 4 7 2 4 1022.5 1022.6 0.0
17/08:30pm 6.9 5.0 2.8 75 1.7 WSW 2 7 1 4 1022.6 - 0.0
17/08:00pm 7.0 4.2 3.2 77 1.6 WSW 7 9 4 5 1022.5 1022.6 0.0
17/07:30pm 7.7 5.2 3.7 76 1.7 NE 6 7 3 4 1022.3 - 0.0
17/07:00pm 7.8 4.6 3.3 73 1.9 NE 9 9 5 5 1022.2 1022.3 0.0
17/06:30pm 8.5 5.7 3.3 70 2.2 E 7 9 4 5 1021.9 - 0.0
17/06:00pm 8.9 5.7 3.0 66 2.5 E 9 13 5 7 1021.6 1021.7 0.0
17/05:30pm 8.6 5.5 3.5 70 2.2 ESE 9 13 5 7 1021.3 - 0.0
17/05:00pm 9.4 5.7 2.5 62 2.9 SE 11 17 6 9 1020.9 1021.0 0.0

Other Formats:

Comma delimited format used in spreadsheet applications
http://www.bom.gov.au/fwo/IDT60801/IDT60801.94975.axf

JavaScript Object Notation format (JSON) in row-major order
http://www.bom.gov.au/fwo/IDT60801/IDT60801.94975.json